sensor_id;sensor_type;location;lat;lon;timestamp;pressure;altitude;pressure_sealevel;temperature;humidity
64189;BME280;50493;50.970;10.082;2022-12-16T00:00:08;98573.19;;;-8.49;64.57
64189;BME280;50493;50.970;10.082;2022-12-16T00:02:36;98569.13;;;-8.45;64.16
64189;BME280;50493;50.970;10.082;2022-12-16T00:05:02;98578.81;;;-8.56;64.68
64189;BME280;50493;50.970;10.082;2022-12-16T00:07:29;98574.53;;;-8.57;65.18
64189;BME280;50493;50.970;10.082;2022-12-16T00:09:54;98571.06;;;-8.59;65.14
64189;BME280;50493;50.970;10.082;2022-12-16T00:12:20;98569.34;;;-8.60;65.17
64189;BME280;50493;50.970;10.082;2022-12-16T00:14:45;98567.56;;;-8.63;65.39
64189;BME280;50493;50.970;10.082;2022-12-16T00:17:11;98565.38;;;-8.53;64.08
64189;BME280;50493;50.970;10.082;2022-12-16T00:19:36;98570.72;;;-8.47;64.12
64189;BME280;50493;50.970;10.082;2022-12-16T00:22:01;98571.03;;;-8.39;63.16
64189;BME280;50493;50.970;10.082;2022-12-16T00:24:28;98580.03;;;-8.25;60.10
64189;BME280;50493;50.970;10.082;2022-12-16T00:26:55;98579.91;;;-8.70;63.68
64189;BME280;50493;50.970;10.082;2022-12-16T00:29:21;98585.44;;;-8.79;64.70
64189;BME280;50493;50.970;10.082;2022-12-16T00:31:46;98576.84;;;-8.83;64.67
64189;BME280;50493;50.970;10.082;2022-12-16T00:34:12;98580.19;;;-8.84;65.45
64189;BME280;50493;50.970;10.082;2022-12-16T00:36:37;98583.44;;;-8.86;65.04
64189;BME280;50493;50.970;10.082;2022-12-16T00:39:03;98585.81;;;-8.91;65.81
64189;BME280;50493;50.970;10.082;2022-12-16T00:41:30;98586.66;;;-8.90;65.30
64189;BME280;50493;50.970;10.082;2022-12-16T00:43:55;98591.03;;;-8.86;64.90
64189;BME280;50493;50.970;10.082;2022-12-16T00:46:20;98589.25;;;-8.89;64.68
64189;BME280;50493;50.970;10.082;2022-12-16T00:48:46;98589.78;;;-8.96;65.44
64189;BME280;50493;50.970;10.082;2022-12-16T00:51:11;98582.53;;;-8.88;65.15
64189;BME280;50493;50.970;10.082;2022-12-16T00:53:37;98585.63;;;-8.94;65.04
64189;BME280;50493;50.970;10.082;2022-12-16T00:56:03;98587.97;;;-9.00;65.52
64189;BME280;50493;50.970;10.082;2022-12-16T00:58:30;98579.66;;;-8.96;65.10
64189;BME280;50493;50.970;10.082;2022-12-16T01:00:55;98583.81;;;-8.98;65.33
64189;BME280;50493;50.970;10.082;2022-12-16T01:03:21;98577.09;;;-8.98;65.39
64189;BME280;50493;50.970;10.082;2022-12-16T01:05:46;98576.47;;;-8.92;65.00
64189;BME280;50493;50.970;10.082;2022-12-16T01:08:12;98585.63;;;-8.94;64.75
64189;BME280;50493;50.970;10.082;2022-12-16T01:10:37;98580.66;;;-8.93;64.58
64189;BME280;50493;50.970;10.082;2022-12-16T01:13:02;98587.97;;;-9.00;65.03
64189;BME280;50493;50.970;10.082;2022-12-16T01:15:29;98586.47;;;-8.95;64.81
64189;BME280;50493;50.970;10.082;2022-12-16T01:17:55;98581.59;;;-8.90;64.17
64189;BME280;50493;50.970;10.082;2022-12-16T01:20:20;98581.66;;;-8.89;63.85
64189;BME280;50493;50.970;10.082;2022-12-16T01:22:45;98584.47;;;-8.83;64.01
64189;BME280;50493;50.970;10.082;2022-12-16T01:25:11;98579.91;;;-8.90;64.15
64189;BME280;50493;50.970;10.082;2022-12-16T01:27:39;98580.44;;;-8.97;64.04
64189;BME280;50493;50.970;10.082;2022-12-16T01:30:06;98588.13;;;-8.96;64.33
64189;BME280;50493;50.970;10.082;2022-12-16T01:32:34;98594.63;;;-9.02;64.36
64189;BME280;50493;50.970;10.082;2022-12-16T01:35:00;98589.53;;;-9.02;64.17
64189;BME280;50493;50.970;10.082;2022-12-16T01:37:25;98584.91;;;-9.13;64.70
64189;BME280;50493;50.970;10.082;2022-12-16T01:39:51;98590.28;;;-9.24;65.59
64189;BME280;50493;50.970;10.082;2022-12-16T01:42:18;98589.00;;;-9.15;64.59
64189;BME280;50493;50.970;10.082;2022-12-16T01:44:45;98589.69;;;-8.99;63.78
64189;BME280;50493;50.970;10.082;2022-12-16T01:47:14;98581.53;;;-8.92;63.64
64189;BME280;50493;50.970;10.082;2022-12-16T01:49:44;98587.97;;;-9.00;64.00
64189;BME280;50493;50.970;10.082;2022-12-16T01:52:13;98587.69;;;-9.06;63.88
64189;BME280;50493;50.970;10.082;2022-12-16T01:54:44;98591.28;;;-9.01;63.86
64189;BME280;50493;50.970;10.082;2022-12-16T01:57:14;98585.03;;;-9.10;64.03
64189;BME280;50493;50.970;10.082;2022-12-16T01:59:43;98583.69;;;-9.01;63.81
64189;BME280;50493;50.970;10.082;2022-12-16T02:02:11;98591.28;;;-9.01;63.28
64189;BME280;50493;50.970;10.082;2022-12-16T02:04:38;98586.75;;;-9.08;63.88
64189;BME280;50493;50.970;10.082;2022-12-16T02:07:25;98589.41;;;-9.05;62.99
64189;BME280;50493;50.970;10.082;2022-12-16T02:09:51;98587.94;;;-9.20;63.67
64189;BME280;50493;50.970;10.082;2022-12-16T02:12:22;98594.38;;;-9.08;59.53
64189;BME280;50493;50.970;10.082;2022-12-16T02:15:03;98588.34;;;-9.30;63.96
64189;BME280;50493;50.970;10.082;2022-12-16T02:17:37;98595.28;;;-9.26;63.93
64189;BME280;50493;50.970;10.082;2022-12-16T02:23:33;98596.13;;;-9.26;63.90
64189;BME280;50493;50.970;10.082;2022-12-16T02:29:06;98596.44;;;-9.37;64.74
64189;BME280;50493;50.970;10.082;2022-12-16T02:31:43;98599.81;;;-9.38;64.46
64189;BME280;50493;50.970;10.082;2022-12-16T02:34:16;98603.13;;;-9.39;64.50
64189;BME280;50493;50.970;10.082;2022-12-16T02:36:55;98611.88;;;-9.33;63.81
64189;BME280;50493;50.970;10.082;2022-12-16T02:39:30;98605.38;;;-9.46;64.62
64189;BME280;50493;50.970;10.082;2022-12-16T02:42:01;98603.25;;;-9.36;64.41
64189;BME280;50493;50.970;10.082;2022-12-16T02:44:34;98608.19;;;-9.39;64.17
64189;BME280;50493;50.970;10.082;2022-12-16T02:47:04;98610.91;;;-9.35;63.97
64189;BME280;50493;50.970;10.082;2022-12-16T02:49:47;98615.72;;;-9.41;64.11
64189;BME280;50493;50.970;10.082;2022-12-16T02:52:14;98617.59;;;-9.37;63.75
64189;BME280;50493;50.970;10.082;2022-12-16T02:54:40;98619.75;;;-9.45;64.32
64189;BME280;50493;50.970;10.082;2022-12-16T02:57:15;98619.47;;;-9.51;64.39
64189;BME280;50493;50.970;10.082;2022-12-16T02:59:47;98626.00;;;-9.56;64.43
64189;BME280;50493;50.970;10.082;2022-12-16T03:02:21;98622.81;;;-9.52;63.83
64189;BME280;50493;50.970;10.082;2022-12-16T03:04:51;98623.50;;;-9.36;62.39
64189;BME280;50493;50.970;10.082;2022-12-16T03:07:21;98626.09;;;-9.35;62.18
64189;BME280;50493;50.970;10.082;2022-12-16T03:09:50;98626.56;;;-9.44;63.36
64189;BME280;50493;50.970;10.082;2022-12-16T03:12:17;98617.72;;;-9.34;62.80
64189;BME280;50493;50.970;10.082;2022-12-16T03:14:46;98616.50;;;-9.42;60.33
64189;BME280;50493;50.970;10.082;2022-12-16T03:17:14;98622.97;;;-9.29;62.17
64189;BME280;50493;50.970;10.082;2022-12-16T03:19:48;98620.47;;;-9.47;63.51
64189;BME280;50493;50.970;10.082;2022-12-16T03:22:18;98617.19;;;-9.64;64.22
64189;BME280;50493;50.970;10.082;2022-12-16T03:24:45;98610.66;;;-9.59;64.26
64189;BME280;50493;50.970;10.082;2022-12-16T03:27:15;98599.94;;;-9.35;62.71
64189;BME280;50493;50.970;10.082;2022-12-16T03:29:45;98601.25;;;-9.44;63.28
64189;BME280;50493;50.970;10.082;2022-12-16T03:32:18;98601.13;;;-9.47;63.26
64189;BME280;50493;50.970;10.082;2022-12-16T03:34:51;98607.47;;;-9.55;63.62
64189;BME280;50493;50.970;10.082;2022-12-16T03:37:17;98616.16;;;-9.50;63.36
64189;BME280;50493;50.970;10.082;2022-12-16T03:39:47;98622.50;;;-9.40;62.39
64189;BME280;50493;50.970;10.082;2022-12-16T03:42:14;98622.53;;;-9.58;63.24
64189;BME280;50493;50.970;10.082;2022-12-16T03:44:41;98623.06;;;-9.46;62.99
64189;BME280;50493;50.970;10.082;2022-12-16T03:47:07;98619.34;;;-9.54;62.71
64189;BME280;50493;50.970;10.082;2022-12-16T03:49:32;98622.94;;;-9.49;62.33
64189;BME280;50493;50.970;10.082;2022-12-16T03:51:59;98612.75;;;-9.50;62.66
64189;BME280;50493;50.970;10.082;2022-12-16T03:54:25;98618.84;;;-9.47;62.33
64189;BME280;50493;50.970;10.082;2022-12-16T03:56:50;98620.13;;;-9.55;62.61
64189;BME280;50493;50.970;10.082;2022-12-16T03:59:16;98625.06;;;-9.58;62.18
64189;BME280;50493;50.970;10.082;2022-12-16T04:01:42;98626.72;;;-9.77;63.26
64189;BME280;50493;50.970;10.082;2022-12-16T04:04:08;98628.91;;;-9.84;63.76
64189;BME280;50493;50.970;10.082;2022-12-16T04:06:33;98630.47;;;-9.86;63.86
64189;BME280;50493;50.970;10.082;2022-12-16T04:09:00;98631.19;;;-9.89;64.10
64189;BME280;50493;50.970;10.082;2022-12-16T04:11:26;98626.16;;;-9.89;64.09
64189;BME280;50493;50.970;10.082;2022-12-16T04:14:10;98628.03;;;-9.85;63.86
64189;BME280;50493;50.970;10.082;2022-12-16T04:16:55;98633.59;;;-9.74;63.15
64189;BME280;50493;50.970;10.082;2022-12-16T04:19:42;98638.00;;;-9.70;62.35
64189;BME280;50493;50.970;10.082;2022-12-16T04:22:29;98637.28;;;-9.85;63.27
64189;BME280;50493;50.970;10.082;2022-12-16T04:25:18;98644.00;;;-9.86;63.28
64189;BME280;50493;50.970;10.082;2022-12-16T04:27:45;98642.03;;;-9.91;63.62
64189;BME280;50493;50.970;10.082;2022-12-16T04:30:14;98649.72;;;-9.90;63.51
64189;BME280;50493;50.970;10.082;2022-12-16T04:32:43;98649.41;;;-9.78;63.51
64189;BME280;50493;50.970;10.082;2022-12-16T04:35:27;98653.47;;;-9.64;62.30
64189;BME280;50493;50.970;10.082;2022-12-16T04:38:12;98654.63;;;-9.57;62.12
64189;BME280;50493;50.970;10.082;2022-12-16T04:40:57;98652.97;;;-9.74;62.78
64189;BME280;50493;50.970;10.082;2022-12-16T04:43:42;98651.88;;;-9.62;62.21
64189;BME280;50493;50.970;10.082;2022-12-16T04:46:26;98652.59;;;-9.46;61.65
64189;BME280;50493;50.970;10.082;2022-12-16T04:49:10;98660.25;;;-9.45;61.41
64189;BME280;50493;50.970;10.082;2022-12-16T04:51:54;98660.56;;;-9.38;61.37
64189;BME280;50493;50.970;10.082;2022-12-16T04:54:38;98672.69;;;-9.31;61.21
64189;BME280;50493;50.970;10.082;2022-12-16T04:57:24;98668.53;;;-9.11;60.43
64189;BME280;50493;50.970;10.082;2022-12-16T05:00:09;98677.66;;;-8.95;59.99
64189;BME280;50493;50.970;10.082;2022-12-16T05:02:53;98686.03;;;-8.96;59.13
64189;BME280;50493;50.970;10.082;2022-12-16T05:05:37;98687.91;;;-8.92;59.18
64189;BME280;50493;50.970;10.082;2022-12-16T05:08:21;98691.53;;;-8.87;58.95
64189;BME280;50493;50.970;10.082;2022-12-16T05:11:05;98684.59;;;-8.91;58.91
64189;BME280;50493;50.970;10.082;2022-12-16T05:13:50;98687.78;;;-8.95;59.92
64189;BME280;50493;50.970;10.082;2022-12-16T05:16:34;98688.16;;;-8.86;59.24
64189;BME280;50493;50.970;10.082;2022-12-16T05:19:18;98694.53;;;-8.37;56.11
64189;BME280;50493;50.970;10.082;2022-12-16T05:22:03;98684.00;;;-8.25;56.38
64189;BME280;50493;50.970;10.082;2022-12-16T05:24:47;98683.09;;;-8.47;56.91
64189;BME280;50493;50.970;10.082;2022-12-16T05:27:31;98691.53;;;-8.48;57.48
64189;BME280;50493;50.970;10.082;2022-12-16T05:30:16;98688.63;;;-7.95;56.33
64189;BME280;50493;50.970;10.082;2022-12-16T05:33:00;98689.47;;;-7.74;56.96
64189;BME280;50493;50.970;10.082;2022-12-16T05:35:44;98695.41;;;-7.52;55.88
64189;BME280;50493;50.970;10.082;2022-12-16T05:38:28;98701.31;;;-7.30;55.55
64189;BME280;50493;50.970;10.082;2022-12-16T05:41:13;98698.78;;;-7.53;56.96
64189;BME280;50493;50.970;10.082;2022-12-16T05:43:56;98701.22;;;-7.33;58.52
64189;BME280;50493;50.970;10.082;2022-12-16T05:46:42;98713.59;;;-7.20;58.70
64189;BME280;50493;50.970;10.082;2022-12-16T05:49:26;98705.06;;;-7.22;56.62
64189;BME280;50493;50.970;10.082;2022-12-16T05:52:10;98711.63;;;-7.27;55.82
64189;BME280;50493;50.970;10.082;2022-12-16T05:54:54;98717.88;;;-8.03;56.37
64189;BME280;50493;50.970;10.082;2022-12-16T05:57:38;98727.56;;;-7.74;58.68
64189;BME280;50493;50.970;10.082;2022-12-16T06:00:22;98727.00;;;-8.09;56.28
64189;BME280;50493;50.970;10.082;2022-12-16T06:03:08;98724.13;;;-7.95;55.96
64189;BME280;50493;50.970;10.082;2022-12-16T06:05:52;98733.47;;;-7.75;54.92
64189;BME280;50493;50.970;10.082;2022-12-16T06:08:36;98733.19;;;-7.81;55.12
64189;BME280;50493;50.970;10.082;2022-12-16T06:11:20;98741.97;;;-7.30;55.62
64189;BME280;50493;50.970;10.082;2022-12-16T06:14:04;98745.13;;;-7.36;56.22
64189;BME280;50493;50.970;10.082;2022-12-16T06:16:49;98745.81;;;-7.19;55.69
64189;BME280;50493;50.970;10.082;2022-12-16T06:19:34;98742.47;;;-7.60;55.95
64189;BME280;50493;50.970;10.082;2022-12-16T06:22:18;98741.09;;;-7.10;56.25
64189;BME280;50493;50.970;10.082;2022-12-16T06:25:03;98751.00;;;-7.16;56.57
64189;BME280;50493;50.970;10.082;2022-12-16T06:27:49;98754.22;;;-7.41;56.68
64189;BME280;50493;50.970;10.082;2022-12-16T06:30:33;98757.34;;;-7.27;57.03
64189;BME280;50493;50.970;10.082;2022-12-16T06:33:18;98762.03;;;-7.58;58.59
64189;BME280;50493;50.970;10.082;2022-12-16T06:36:04;98765.63;;;-7.74;57.31
64189;BME280;50493;50.970;10.082;2022-12-16T06:38:48;98769.38;;;-7.65;56.45
64189;BME280;50493;50.970;10.082;2022-12-16T06:41:32;98773.31;;;-7.30;58.12
64189;BME280;50493;50.970;10.082;2022-12-16T06:44:16;98777.94;;;-6.98;57.74
64189;BME280;50493;50.970;10.082;2022-12-16T06:47:01;98787.44;;;-7.58;60.01
64189;BME280;50493;50.970;10.082;2022-12-16T06:49:44;98793.25;;;-7.60;59.80
64189;BME280;50493;50.970;10.082;2022-12-16T06:52:30;98788.56;;;-7.51;60.66
64189;BME280;50493;50.970;10.082;2022-12-16T06:55:13;98794.50;;;-7.08;59.28
64189;BME280;50493;50.970;10.082;2022-12-16T06:57:58;98797.66;;;-7.56;56.21
64189;BME280;50493;50.970;10.082;2022-12-16T07:00:42;98807.22;;;-6.85;59.53
64189;BME280;50493;50.970;10.082;2022-12-16T07:03:26;98814.56;;;-7.14;57.36
64189;BME280;50493;50.970;10.082;2022-12-16T07:06:10;98812.13;;;-6.90;59.84
64189;BME280;50493;50.970;10.082;2022-12-16T07:08:55;98823.81;;;-6.73;59.12
64189;BME280;50493;50.970;10.082;2022-12-16T07:11:39;98811.09;;;-6.50;58.28
64189;BME280;50493;50.970;10.082;2022-12-16T07:14:24;98812.88;;;-6.70;55.91
64189;BME280;50493;50.970;10.082;2022-12-16T07:17:08;98818.09;;;-6.67;60.37
64189;BME280;50493;50.970;10.082;2022-12-16T07:19:52;98820.19;;;-6.57;56.44
64189;BME280;50493;50.970;10.082;2022-12-16T07:22:36;98822.88;;;-6.52;55.49
64189;BME280;50493;50.970;10.082;2022-12-16T07:25:22;98830.44;;;-7.20;55.77
64189;BME280;50493;50.970;10.082;2022-12-16T07:28:05;98839.84;;;-6.96;54.44
64189;BME280;50493;50.970;10.082;2022-12-16T07:30:50;98840.06;;;-6.90;60.81
64189;BME280;50493;50.970;10.082;2022-12-16T07:33:34;98850.16;;;-6.70;62.85
64189;BME280;50493;50.970;10.082;2022-12-16T07:36:18;98851.75;;;-6.51;63.03
64189;BME280;50493;50.970;10.082;2022-12-16T07:39:02;98860.28;;;-6.27;59.96
64189;BME280;50493;50.970;10.082;2022-12-16T07:41:48;98853.59;;;-6.00;61.98
64189;BME280;50493;50.970;10.082;2022-12-16T07:44:32;98861.88;;;-5.82;61.41
64189;BME280;50493;50.970;10.082;2022-12-16T07:47:16;98864.72;;;-6.21;56.28
64189;BME280;50493;50.970;10.082;2022-12-16T07:50:00;98867.78;;;-5.83;57.25
64189;BME280;50493;50.970;10.082;2022-12-16T07:52:44;98873.88;;;-5.79;60.76
64189;BME280;50493;50.970;10.082;2022-12-16T07:55:28;98884.03;;;-5.79;55.97
64189;BME280;50493;50.970;10.082;2022-12-16T07:58:13;98891.03;;;-5.74;54.92
64189;BME280;50493;50.970;10.082;2022-12-16T08:00:57;98889.75;;;-5.86;52.80
64189;BME280;50493;50.970;10.082;2022-12-16T08:03:41;98886.41;;;-6.31;53.62
64189;BME280;50493;50.970;10.082;2022-12-16T08:06:25;98895.09;;;-6.03;60.70
64189;BME280;50493;50.970;10.082;2022-12-16T08:09:09;98895.75;;;-5.60;58.82
64189;BME280;50493;50.970;10.082;2022-12-16T08:11:53;98900.84;;;-5.60;56.00
64189;BME280;50493;50.970;10.082;2022-12-16T08:14:39;98904.84;;;-5.91;60.90
64189;BME280;50493;50.970;10.082;2022-12-16T08:17:22;98906.03;;;-5.33;62.93
64189;BME280;50493;50.970;10.082;2022-12-16T08:20:07;98911.75;;;-5.87;54.15
64189;BME280;50493;50.970;10.082;2022-12-16T08:22:51;98910.88;;;-6.57;55.24
64189;BME280;50493;50.970;10.082;2022-12-16T08:25:35;98902.53;;;-6.53;55.28
64189;BME280;50493;50.970;10.082;2022-12-16T08:28:20;98903.44;;;-6.07;59.10
64189;BME280;50493;50.970;10.082;2022-12-16T08:31:05;98906.47;;;-6.16;58.78
64189;BME280;50493;50.970;10.082;2022-12-16T08:33:49;98901.97;;;-6.23;54.60
64189;BME280;50493;50.970;10.082;2022-12-16T08:36:33;98913.19;;;-6.41;56.32
64189;BME280;50493;50.970;10.082;2022-12-16T08:39:17;98915.44;;;-5.79;55.33
64189;BME280;50493;50.970;10.082;2022-12-16T08:42:01;98919.34;;;-4.90;68.18
64189;BME280;50493;50.970;10.082;2022-12-16T08:44:45;98924.63;;;-4.31;64.96
64189;BME280;50493;50.970;10.082;2022-12-16T08:47:31;98927.25;;;-3.99;60.73
64189;BME280;50493;50.970;10.082;2022-12-16T08:50:15;98930.50;;;-3.76;64.80
64189;BME280;50493;50.970;10.082;2022-12-16T08:52:59;98928.41;;;-3.89;64.08
64189;BME280;50493;50.970;10.082;2022-12-16T08:55:43;98925.63;;;-3.66;63.08
64189;BME280;50493;50.970;10.082;2022-12-16T08:58:26;98930.34;;;-3.50;62.79
64189;BME280;50493;50.970;10.082;2022-12-16T09:01:11;98939.13;;;-3.71;64.06
64189;BME280;50493;50.970;10.082;2022-12-16T09:03:56;98938.19;;;-3.12;62.59
64189;BME280;50493;50.970;10.082;2022-12-16T09:06:40;98945.06;;;-3.09;61.28
64189;BME280;50493;50.970;10.082;2022-12-16T09:09:25;98957.31;;;-4.19;50.33
64189;BME280;50493;50.970;10.082;2022-12-16T09:12:08;98950.59;;;-4.70;62.81
64189;BME280;50493;50.970;10.082;2022-12-16T09:14:53;98968.97;;;-4.80;69.76
64189;BME280;50493;50.970;10.082;2022-12-16T09:17:37;98965.09;;;-3.86;65.46
64189;BME280;50493;50.970;10.082;2022-12-16T09:20:22;98971.69;;;-4.76;53.82
64189;BME280;50493;50.970;10.082;2022-12-16T09:23:07;98971.38;;;-4.03;63.11
64189;BME280;50493;50.970;10.082;2022-12-16T09:25:51;98964.00;;;-3.35;65.41
64189;BME280;50493;50.970;10.082;2022-12-16T09:28:34;98974.13;;;-3.38;66.18
64189;BME280;50493;50.970;10.082;2022-12-16T09:31:18;98977.19;;;-3.19;65.12
64189;BME280;50493;50.970;10.082;2022-12-16T09:34:03;98985.91;;;-3.43;66.94
64189;BME280;50493;50.970;10.082;2022-12-16T09:36:48;98983.09;;;-2.55;63.56
64189;BME280;50493;50.970;10.082;2022-12-16T09:39:32;98981.53;;;-2.50;60.04
64189;BME280;50493;50.970;10.082;2022-12-16T09:42:22;98979.03;;;-2.46;57.81
64189;BME280;50493;50.970;10.082;2022-12-16T09:45:15;98984.56;;;-1.91;61.72
64189;BME280;50493;50.970;10.082;2022-12-16T09:48:10;98981.63;;;-2.08;63.10
64189;BME280;50493;50.970;10.082;2022-12-16T09:51:01;98995.03;;;-2.20;63.72
64189;BME280;50493;50.970;10.082;2022-12-16T09:53:49;98990.13;;;-2.46;55.07
64189;BME280;50493;50.970;10.082;2022-12-16T09:56:35;98991.66;;;-2.18;60.33
64189;BME280;50493;50.970;10.082;2022-12-16T09:59:23;99000.06;;;-1.85;62.75
64189;BME280;50493;50.970;10.082;2022-12-16T10:02:13;99000.44;;;-3.10;55.63
64189;BME280;50493;50.970;10.082;2022-12-16T10:04:59;99000.78;;;-2.64;64.11
64189;BME280;50493;50.970;10.082;2022-12-16T10:07:47;98996.09;;;-2.47;60.04
64189;BME280;50493;50.970;10.082;2022-12-16T10:10:44;98999.38;;;-3.18;67.64
64189;BME280;50493;50.970;10.082;2022-12-16T10:13:36;99005.75;;;-2.70;64.28
64189;BME280;50493;50.970;10.082;2022-12-16T10:16:28;99001.50;;;-3.64;59.08
64189;BME280;50493;50.970;10.082;2022-12-16T10:19:25;99001.94;;;-3.18;68.06
64189;BME280;50493;50.970;10.082;2022-12-16T10:22:18;99007.88;;;-2.87;60.18
64189;BME280;50493;50.970;10.082;2022-12-16T10:25:06;98998.78;;;-2.41;63.32
64189;BME280;50493;50.970;10.082;2022-12-16T10:27:59;99002.00;;;-3.15;66.51
64189;BME280;50493;50.970;10.082;2022-12-16T10:30:49;98992.59;;;-2.51;63.79
64189;BME280;50493;50.970;10.082;2022-12-16T10:33:33;98994.00;;;-2.63;64.32
64189;BME280;50493;50.970;10.082;2022-12-16T10:36:20;99001.34;;;-2.76;64.83
64189;BME280;50493;50.970;10.082;2022-12-16T10:39:14;99007.00;;;-2.54;64.73
64189;BME280;50493;50.970;10.082;2022-12-16T10:42:02;99006.00;;;-3.25;66.55
64189;BME280;50493;50.970;10.082;2022-12-16T10:44:51;99002.13;;;-2.78;65.46
64189;BME280;50493;50.970;10.082;2022-12-16T10:47:37;99005.31;;;-3.19;68.00
64189;BME280;50493;50.970;10.082;2022-12-16T10:50:22;98997.63;;;-2.87;65.93
64189;BME280;50493;50.970;10.082;2022-12-16T10:53:11;99003.25;;;-2.69;66.04
64189;BME280;50493;50.970;10.082;2022-12-16T10:56:02;99004.19;;;-2.28;64.56
64189;BME280;50493;50.970;10.082;2022-12-16T10:58:59;99003.13;;;-2.38;64.46
64189;BME280;50493;50.970;10.082;2022-12-16T11:01:55;99010.31;;;-2.58;64.85
64189;BME280;50493;50.970;10.082;2022-12-16T11:04:40;98996.22;;;-2.04;60.87
64189;BME280;50493;50.970;10.082;2022-12-16T11:07:31;99003.47;;;-1.86;62.02
64189;BME280;50493;50.970;10.082;2022-12-16T11:10:31;99001.38;;;-1.64;58.22
64189;BME280;50493;50.970;10.082;2022-12-16T11:13:18;99003.56;;;-2.20;62.79
64189;BME280;50493;50.970;10.082;2022-12-16T11:16:14;99005.84;;;-1.95;62.62
64189;BME280;50493;50.970;10.082;2022-12-16T11:19:00;99016.03;;;-1.16;56.15
64189;BME280;50493;50.970;10.082;2022-12-16T11:21:45;99008.88;;;-0.88;58.88
64189;BME280;50493;50.970;10.082;2022-12-16T11:24:30;99019.53;;;-1.55;61.48
64189;BME280;50493;50.970;10.082;2022-12-16T11:27:21;99013.97;;;-1.34;60.46
64189;BME280;50493;50.970;10.082;2022-12-16T11:30:16;99021.94;;;-1.61;61.81
64189;BME280;50493;50.970;10.082;2022-12-16T11:33:05;99027.06;;;-1.61;60.38
64189;BME280;50493;50.970;10.082;2022-12-16T11:36:00;99035.28;;;-1.37;62.27
64189;BME280;50493;50.970;10.082;2022-12-16T11:38:49;99032.41;;;-1.52;52.97
64189;BME280;50493;50.970;10.082;2022-12-16T11:41:37;99027.16;;;-1.57;50.17
64189;BME280;50493;50.970;10.082;2022-12-16T11:44:26;99029.00;;;-1.89;52.33
64189;BME280;50493;50.970;10.082;2022-12-16T11:47:17;99029.00;;;-1.89;52.43
64189;BME280;50493;50.970;10.082;2022-12-16T11:50:10;99041.88;;;-2.59;62.08
64189;BME280;50493;50.970;10.082;2022-12-16T11:52:58;99040.50;;;-2.10;61.31
64189;BME280;50493;50.970;10.082;2022-12-16T11:55:44;99034.94;;;-1.92;58.18
64189;BME280;50493;50.970;10.082;2022-12-16T11:58:36;99037.25;;;-2.03;61.52
64189;BME280;50493;50.970;10.082;2022-12-16T12:01:27;99036.56;;;-1.95;55.29
64189;BME280;50493;50.970;10.082;2022-12-16T12:04:14;99040.94;;;-1.91;58.93
64189;BME280;50493;50.970;10.082;2022-12-16T12:07:12;99047.88;;;-2.57;54.30
64189;BME280;50493;50.970;10.082;2022-12-16T12:10:09;99051.09;;;-2.64;62.59
64189;BME280;50493;50.970;10.082;2022-12-16T12:12:58;99050.00;;;-2.41;60.67
64189;BME280;50493;50.970;10.082;2022-12-16T12:15:50;99050.63;;;-2.50;60.76
64189;BME280;50493;50.970;10.082;2022-12-16T12:18:42;99045.41;;;-2.19;58.00
64189;BME280;50493;50.970;10.082;2022-12-16T12:21:33;99048.59;;;-2.29;62.23
64189;BME280;50493;50.970;10.082;2022-12-16T12:24:26;99053.22;;;-2.48;61.93
64189;BME280;50493;50.970;10.082;2022-12-16T12:27:18;99052.41;;;-2.12;62.05
64189;BME280;50493;50.970;10.082;2022-12-16T12:30:09;99052.44;;;-1.74;60.60
64189;BME280;50493;50.970;10.082;2022-12-16T12:33:05;99057.00;;;-1.60;60.14
64189;BME280;50493;50.970;10.082;2022-12-16T12:35:58;99061.88;;;-0.90;59.12
64189;BME280;50493;50.970;10.082;2022-12-16T12:38:52;99058.97;;;-0.11;55.66
64189;BME280;50493;50.970;10.082;2022-12-16T12:41:52;99066.38;;;-0.30;57.33
64189;BME280;50493;50.970;10.082;2022-12-16T12:44:47;99071.41;;;0.18;55.16
64189;BME280;50493;50.970;10.082;2022-12-16T12:47:38;99062.47;;;0.51;53.58
64189;BME280;50493;50.970;10.082;2022-12-16T12:50:30;99071.19;;;0.02;53.83
64189;BME280;50493;50.970;10.082;2022-12-16T12:53:27;99075.31;;;-0.58;56.92
64189;BME280;50493;50.970;10.082;2022-12-16T12:56:22;99075.22;;;-0.62;57.08
64189;BME280;50493;50.970;10.082;2022-12-16T12:59:13;99072.13;;;0.08;55.56
64189;BME280;50493;50.970;10.082;2022-12-16T13:02:02;99082.56;;;0.17;55.06
64189;BME280;50493;50.970;10.082;2022-12-16T13:04:49;99076.66;;;0.23;54.84
64189;BME280;50493;50.970;10.082;2022-12-16T13:07:34;99078.97;;;1.37;53.80
64189;BME280;50493;50.970;10.082;2022-12-16T13:10:35;99075.31;;;1.17;51.44
64189;BME280;50493;50.970;10.082;2022-12-16T13:13:28;99088.88;;;-0.64;57.25
64189;BME280;50493;50.970;10.082;2022-12-16T13:20:00;99102.47;;;-0.23;55.97
64189;BME280;50493;50.970;10.082;2022-12-16T13:22:45;99106.34;;;-0.91;58.05
64189;BME280;50493;50.970;10.082;2022-12-16T13:25:32;99104.13;;;0.88;54.72
64189;BME280;50493;50.970;10.082;2022-12-16T13:28:21;99108.47;;;0.29;53.87
64189;BME280;50493;50.970;10.082;2022-12-16T13:31:07;99114.63;;;-0.13;55.60
64189;BME280;50493;50.970;10.082;2022-12-16T13:33:52;99107.91;;;1.18;53.74
64189;BME280;50493;50.970;10.082;2022-12-16T13:36:39;99103.00;;;1.39;50.42
64189;BME280;50493;50.970;10.082;2022-12-16T13:39:24;99103.59;;;1.95;49.73
64189;BME280;50493;50.970;10.082;2022-12-16T13:42:31;99112.91;;;1.02;51.96
64189;BME280;50493;50.970;10.082;2022-12-16T13:45:29;99110.94;;;1.57;52.86
64189;BME280;50493;50.970;10.082;2022-12-16T13:48:34;99115.47;;;1.81;50.27
64189;BME280;50493;50.970;10.082;2022-12-16T13:54:57;99118.81;;;1.70;50.38
64189;BME280;50493;50.970;10.082;2022-12-16T13:57:42;99135.63;;;1.37;49.79
64189;BME280;50493;50.970;10.082;2022-12-16T14:00:32;99141.34;;;1.13;50.15
64189;BME280;50493;50.970;10.082;2022-12-16T14:03:24;99142.44;;;0.66;51.58
64189;BME280;50493;50.970;10.082;2022-12-16T14:06:18;99143.06;;;1.13;51.45
64189;BME280;50493;50.970;10.082;2022-12-16T14:09:03;99148.63;;;0.78;50.87
64189;BME280;50493;50.970;10.082;2022-12-16T14:11:52;99140.91;;;0.78;51.97
64189;BME280;50493;50.970;10.082;2022-12-16T14:14:44;99148.97;;;1.05;52.15